createdAt,value
2019-04-04T00:02:17.129Z,97122.08
2019-04-04T00:04:46.780Z,97106.56
2019-04-04T00:07:15.546Z,97119.50
2019-04-04T00:09:44.262Z,97107.03
2019-04-04T00:12:12.978Z,97112.75
2019-04-04T00:14:44.259Z,97107.98
2019-04-04T00:17:13.139Z,97107.49
2019-04-04T00:19:41.850Z,97105.27
2019-04-04T00:22:10.601Z,97110.88
2019-04-04T00:24:39.927Z,97106.67
2019-04-04T00:27:08.706Z,97104.06
2019-04-04T00:29:38.453Z,97109.41
2019-04-04T00:32:07.161Z,97105.74
2019-04-04T00:34:35.876Z,97104.25
2019-04-04T00:37:05.250Z,97108.50
2019-04-04T00:39:34.120Z,97102.60
2019-04-04T00:42:02.832Z,97096.44
2019-04-04T00:44:31.574Z,97098.16
2019-04-04T00:47:01.816Z,97103.10
2019-04-04T00:49:30.689Z,97089.92
2019-04-04T00:51:59.459Z,97104.90
2019-04-04T00:54:28.272Z,97100.05
2019-04-04T00:56:57.237Z,97096.17
2019-04-04T00:59:27.452Z,97099.05
2019-04-04T01:01:57.001Z,97093.06
2019-04-04T01:04:26.460Z,97096.86
2019-04-04T01:06:55.141Z,97101.49
2019-04-04T01:09:23.852Z,97092.80
2019-04-04T01:11:52.568Z,97093.86
2019-04-04T01:14:22.337Z,97098.30
2019-04-04T01:16:52.285Z,97100.52
2019-04-04T01:19:21.195Z,97091.62
2019-04-04T01:21:53.035Z,97090.03
2019-04-04T01:24:20.382Z,97088.77
2019-04-04T01:26:49.148Z,97083.13
2019-04-04T01:29:17.902Z,97087.20
2019-04-04T01:31:46.683Z,97082.55
2019-04-04T01:34:15.419Z,97083.89
2019-04-04T01:36:44.138Z,97082.62
2019-04-04T01:39:12.930Z,97083.58
2019-04-04T01:41:43.578Z,97088.78
2019-04-04T01:44:12.221Z,97083.42
2019-04-04T01:46:41.864Z,97093.41
2019-04-04T01:49:10.507Z,97090.20
2019-04-04T01:51:39.151Z,97085.95
2019-04-04T01:54:07.867Z,97084.59
2019-04-04T01:56:37.054Z,97079.96
2019-04-04T01:59:07.509Z,97086.94
2019-04-04T02:01:36.354Z,97084.59
2019-04-04T02:04:04.999Z,97088.41
2019-04-04T02:06:33.580Z,97086.01
2019-04-04T02:09:02.820Z,97085.02
2019-04-04T02:11:32.393Z,97086.56
2019-04-04T02:14:05.108Z,97092.14
2019-04-04T02:16:33.717Z,97094.22
2019-04-04T02:19:02.461Z,97087.44
2019-04-04T02:21:31.090Z,97079.88
2019-04-04T02:24:01.660Z,97086.91
2019-04-04T02:26:30.660Z,97081.95
2019-04-04T02:29:01.014Z,97085.86
2019-04-04T02:31:31.310Z,97087.33
2019-04-04T02:34:05.339Z,97080.25
2019-04-04T02:36:33.922Z,97080.59
2019-04-04T02:39:11.152Z,97076.09
2019-04-04T02:41:39.815Z,97075.45
2019-04-04T02:44:08.773Z,97075.25
2019-04-04T02:46:38.610Z,97079.08
2019-04-04T02:49:07.259Z,97075.80
2019-04-04T02:51:40.158Z,97075.64
2019-04-04T02:54:06.324Z,97079.03
2019-04-04T02:56:36.104Z,97071.56
2019-04-04T02:59:06.433Z,97070.61
2019-04-04T03:01:35.119Z,97073.72
2019-04-04T03:04:03.857Z,97068.61
2019-04-04T03:06:32.491Z,97069.22
2019-04-04T03:09:01.002Z,97071.38
2019-04-04T03:11:29.651Z,97071.38
2019-04-04T03:13:58.290Z,97073.13
2019-04-04T03:16:26.986Z,97072.84
2019-04-04T03:18:56.815Z,97073.09
2019-04-04T03:21:25.458Z,97071.62
2019-04-04T03:23:53.990Z,97072.98
2019-04-04T03:26:22.633Z,97079.23
2019-04-04T03:28:52.753Z,97077.45
2019-04-04T03:31:21.446Z,97074.98
2019-04-04T03:33:50.103Z,97069.73
2019-04-04T03:36:18.744Z,97074.58
2019-04-04T03:38:47.601Z,97071.20
2019-04-04T03:41:16.091Z,97082.34
2019-04-04T03:43:48.096Z,97089.85
2019-04-04T03:46:15.073Z,97093.91
2019-04-04T03:48:43.789Z,97092.45
2019-04-04T03:51:15.240Z,97097.05
2019-04-04T03:53:51.440Z,97088.62
2019-04-04T03:56:20.102Z,97096.50
2019-04-04T03:58:48.667Z,97097.80
2019-04-04T04:01:17.354Z,97094.69
2019-04-04T04:03:46.003Z,97095.19
2019-04-04T04:06:14.666Z,97099.22
2019-04-04T04:08:43.339Z,97104.18
2019-04-04T04:11:11.991Z,97104.72
2019-04-04T04:13:40.634Z,97114.84
2019-04-04T04:16:09.241Z,97109.95
2019-04-04T04:18:38.170Z,97116.39
2019-04-04T04:21:09.716Z,97107.84
2019-04-04T04:23:37.198Z,97117.33
2019-04-04T04:26:09.500Z,97118.93
2019-04-04T04:28:36.208Z,97122.30
2019-04-04T04:31:04.862Z,97123.06
2019-04-04T04:33:33.441Z,97126.71
2019-04-04T04:36:02.074Z,97124.73
2019-04-04T04:38:30.831Z,97112.67
2019-04-04T04:41:00.937Z,97117.23
2019-04-04T04:43:32.419Z,97119.07
2019-04-04T04:45:59.993Z,97117.05
2019-04-04T04:48:31.836Z,97119.27
2019-04-04T04:50:58.928Z,97121.58
2019-04-04T04:53:27.474Z,97107.63
2019-04-04T04:55:59.481Z,97109.91
2019-04-04T04:58:26.490Z,97114.95
2019-04-04T05:00:55.109Z,97114.69
2019-04-04T05:03:24.268Z,97117.41
2019-04-04T05:05:53.593Z,97125.19
2019-04-04T05:08:22.448Z,97120.14
2019-04-04T05:10:51.033Z,97128.28
2019-04-04T05:13:19.691Z,97132.36
2019-04-04T05:15:48.376Z,97131.45
2019-04-04T05:18:17.165Z,97131.86
2019-04-04T05:20:45.808Z,97133.91
2019-04-04T05:23:15.605Z,97135.34
2019-04-04T05:25:53.841Z,97134.30
2019-04-04T05:28:15.359Z,97131.53
2019-04-04T05:30:46.839Z,97133.91
2019-04-04T05:33:14.567Z,97136.80
2019-04-04T05:35:43.221Z,97131.12
2019-04-04T05:38:12.468Z,97130.02
2019-04-04T05:40:41.880Z,97133.01
2019-04-04T05:43:10.940Z,97132.31
2019-04-04T05:45:39.775Z,97132.09
2019-04-04T05:48:08.339Z,97129.53
2019-04-04T05:50:37.102Z,97126.71
2019-04-04T05:53:06.014Z,97120.92
2019-04-04T05:55:35.692Z,97131.52
2019-04-04T05:58:04.415Z,97127.21
2019-04-04T06:00:34.172Z,97127.60
2019-04-04T06:03:02.885Z,97127.07
2019-04-04T06:05:31.886Z,97126.37
2019-04-04T06:08:01.069Z,97122.48
2019-04-04T06:10:29.749Z,97122.73
2019-04-04T06:12:58.432Z,97123.17
2019-04-04T06:15:27.503Z,97126.97
2019-04-04T06:17:56.095Z,97115.31
2019-04-04T06:20:24.745Z,97119.78
2019-04-04T06:22:53.481Z,97121.19
2019-04-04T06:25:22.038Z,97120.67
2019-04-04T06:27:50.701Z,97124.34
2019-04-04T06:30:20.151Z,97129.39
2019-04-04T06:32:49.279Z,97129.33
2019-04-04T06:35:17.922Z,97128.02
2019-04-04T06:37:46.641Z,97128.33
2019-04-04T06:40:15.712Z,97125.98
2019-04-04T06:42:46.011Z,97124.92
2019-04-04T06:45:16.353Z,97130.45
2019-04-04T06:47:45.037Z,97129.25
2019-04-04T06:50:14.700Z,97132.27
2019-04-04T06:52:43.381Z,97136.14
2019-04-04T06:55:12.340Z,97135.03
2019-04-04T06:57:40.997Z,97140.08
2019-04-04T07:00:10.494Z,97133.50
2019-04-04T07:02:39.179Z,97136.52
2019-04-04T07:05:10.760Z,97140.08
2019-04-04T07:07:43.169Z,97134.33
2019-04-04T07:10:11.067Z,97139.93
2019-04-04T07:12:39.543Z,97140.73
2019-04-04T07:15:12.447Z,97138.25
2019-04-04T07:17:41.307Z,97140.89
2019-04-04T07:20:11.595Z,97142.87
2019-04-04T07:22:40.276Z,97141.88
2019-04-04T07:25:09.190Z,97137.73
2019-04-04T07:27:45.330Z,97137.86
2019-04-04T07:30:15.494Z,97144.16
2019-04-04T07:32:44.544Z,97137.64
2019-04-04T07:35:16.850Z,97136.94
2019-04-04T07:37:45.623Z,97132.70
2019-04-04T07:40:14.495Z,97134.51
2019-04-04T07:42:47.906Z,97129.14
2019-04-04T07:45:15.326Z,97138.86
2019-04-04T07:47:46.678Z,97139.28
2019-04-04T07:50:14.600Z,97140.11
2019-04-04T07:52:43.240Z,97140.30
2019-04-04T07:55:12.149Z,97140.95
2019-04-04T07:57:40.831Z,97140.15
2019-04-04T08:00:10.789Z,97132.80
2019-04-04T08:02:39.471Z,97135.97
2019-04-04T08:05:09.427Z,97138.18
2019-04-04T08:07:38.080Z,97136.44
2019-04-04T08:10:20.080Z,97136.47
2019-04-04T08:12:38.540Z,97134.52
2019-04-04T08:15:08.339Z,97135.13
2019-04-04T08:17:37.461Z,97134.06
2019-04-04T08:20:06.813Z,97119.96
2019-04-04T08:22:35.470Z,97122.70
2019-04-04T08:25:05.248Z,97116.12
2019-04-04T08:27:33.836Z,97108.77
2019-04-04T08:30:05.282Z,97108.53
2019-04-04T08:32:36.611Z,97105.69
2019-04-04T08:35:08.311Z,97103.12
2019-04-04T08:37:39.837Z,97098.05
2019-04-04T08:40:10.615Z,97092.97
2019-04-04T08:42:39.306Z,97089.73
2019-04-04T08:45:09.426Z,97094.54
2019-04-04T08:47:38.136Z,97094.64
2019-04-04T08:50:10.306Z,97082.44
2019-04-04T08:52:38.938Z,97077.98
2019-04-04T08:55:08.456Z,97072.45
2019-04-04T08:57:37.120Z,97083.73
2019-04-04T09:00:08.355Z,97070.58
2019-04-04T09:02:38.796Z,97067.76
2019-04-04T09:05:12.234Z,97064.20
2019-04-04T09:07:43.458Z,97059.87
2019-04-04T09:10:13.471Z,97056.37
2019-04-04T09:12:44.929Z,97047.87
2019-04-04T09:15:13.518Z,97042.28
2019-04-04T09:17:43.874Z,97046.33
2019-04-04T09:20:13.285Z,97042.48
2019-04-04T09:22:41.954Z,97048.16
2019-04-04T09:25:12.841Z,97030.58
2019-04-04T09:27:42.485Z,97027.83
2019-04-04T09:30:12.187Z,97023.59
2019-04-04T09:32:41.351Z,97028.30
2019-04-04T09:35:10.394Z,97021.72
2019-04-04T09:37:39.042Z,97010.31
2019-04-04T09:40:09.504Z,97008.39
2019-04-04T09:42:38.163Z,97012.86
2019-04-04T09:45:09.267Z,97007.68
2019-04-04T09:47:38.356Z,97007.55
2019-04-04T09:50:09.281Z,97008.58
2019-04-04T09:52:37.917Z,97000.52
2019-04-04T09:55:08.924Z,96991.19
2019-04-04T09:57:37.578Z,96990.00
2019-04-04T10:00:09.146Z,96987.23
2019-04-04T10:02:37.876Z,96983.73
2019-04-04T10:05:08.224Z,96970.90
2019-04-04T10:07:37.131Z,96970.84
2019-04-04T10:10:10.968Z,96961.12
2019-04-04T10:12:40.673Z,96956.75
2019-04-04T10:15:09.810Z,96950.44
2019-04-04T10:17:38.544Z,96953.73
2019-04-04T10:20:07.714Z,96944.71
2019-04-04T10:22:36.388Z,96945.48
2019-04-04T10:25:20.907Z,96931.08
2019-04-04T10:30:51.666Z,96929.65
2019-04-04T10:33:20.374Z,96932.00
2019-04-04T10:35:48.890Z,96921.77
2019-04-04T10:38:17.853Z,96923.86
2019-04-04T10:40:46.568Z,96923.13
2019-04-04T10:43:15.238Z,96916.41
2019-04-04T10:45:44.104Z,96922.16
2019-04-04T10:48:13.936Z,96910.31
2019-04-04T10:50:42.563Z,96894.61
2019-04-04T10:53:12.712Z,96918.59
2019-04-04T10:55:41.372Z,96907.98
2019-04-04T10:58:10.589Z,96903.77
2019-04-04T11:00:39.249Z,96882.58
2019-04-04T11:03:10.803Z,96882.58
2019-04-04T11:05:39.372Z,96896.44
2019-04-04T11:08:08.085Z,96892.20
2019-04-04T11:10:36.741Z,96892.20
2019-04-04T11:13:05.511Z,96896.67
2019-04-04T11:15:34.176Z,96895.95
2019-04-04T11:18:02.881Z,96885.97
2019-04-04T11:20:31.476Z,96886.70
2019-04-04T11:23:00.201Z,96871.81
2019-04-04T11:25:30.371Z,96869.33
2019-04-04T11:27:59.027Z,96862.38
2019-04-04T11:30:28.786Z,96857.06
2019-04-04T11:32:57.439Z,96844.38
2019-04-04T11:35:26.098Z,96835.17
2019-04-04T11:37:54.820Z,96835.17
2019-04-04T11:40:23.417Z,96840.30
2019-04-04T11:42:52.076Z,96832.44
2019-04-04T11:45:20.738Z,96835.73
2019-04-04T11:47:56.984Z,96809.07
2019-04-04T11:50:25.692Z,96809.07
2019-04-04T11:52:55.812Z,96827.83
2019-04-04T11:55:25.928Z,96820.09
2019-04-04T11:58:19.905Z,96830.25
2019-04-04T12:00:39.967Z,96824.26
2019-04-04T12:03:10.406Z,96827.63
2019-04-04T12:05:48.339Z,96821.91
2019-04-04T12:08:17.286Z,96814.45
2019-04-04T12:10:47.400Z,96810.36
2019-04-04T12:13:16.089Z,96799.49
2019-04-04T12:15:44.786Z,96802.50
2019-04-04T12:18:13.475Z,96795.27
2019-04-04T12:20:43.549Z,96797.31
2019-04-04T12:23:17.697Z,96786.86
2019-04-04T12:25:46.955Z,96784.39
2019-04-04T12:28:15.629Z,96784.14
2019-04-04T12:30:44.372Z,96774.94
2019-04-04T12:33:13.136Z,96770.81
2019-04-04T12:35:41.844Z,96775.48
2019-04-04T12:38:10.731Z,96769.41
2019-04-04T12:40:39.402Z,96777.70
2019-04-04T12:43:08.122Z,96769.11
2019-04-04T12:45:36.849Z,96768.84
2019-04-04T12:48:05.475Z,96759.80
2019-04-04T12:50:34.636Z,96753.77
2019-04-04T12:53:03.489Z,96758.00
2019-04-04T12:55:32.131Z,96757.83
2019-04-04T12:58:00.772Z,96746.95
2019-04-04T13:00:29.459Z,96746.61
2019-04-04T13:02:58.065Z,96713.41
2019-04-04T13:05:26.710Z,96712.91
2019-04-04T13:07:55.296Z,96712.91
2019-04-04T13:10:32.965Z,96699.27
2019-04-04T13:12:55.302Z,96710.68
2019-04-04T13:15:24.009Z,96721.47
2019-04-04T13:17:57.855Z,96715.36
2019-04-04T13:20:26.494Z,96717.48
2019-04-04T13:22:55.315Z,96717.48
2019-04-04T13:25:24.076Z,96714.05
2019-04-04T13:27:52.647Z,96715.82
2019-04-04T13:30:21.894Z,96701.56
2019-04-04T13:32:50.539Z,96707.36
2019-04-04T13:35:19.178Z,96707.36
2019-04-04T13:37:47.905Z,96714.45
2019-04-04T13:40:16.679Z,96707.16
2019-04-04T13:42:45.430Z,96711.53
2019-04-04T13:45:15.543Z,96690.10
2019-04-04T13:47:44.184Z,96698.36
2019-04-04T13:50:13.380Z,96690.10
2019-04-04T13:52:42.020Z,96689.98
2019-04-04T13:55:10.671Z,96693.45
2019-04-04T13:57:41.030Z,96679.80
2019-04-04T14:00:10.979Z,96672.11
2019-04-04T14:02:39.625Z,96668.40
2019-04-04T14:05:13.977Z,96666.81
2019-04-04T14:07:43.686Z,96659.81
2019-04-04T14:10:16.852Z,96662.68
2019-04-04T14:12:44.323Z,96659.56
2019-04-04T14:15:12.984Z,96647.31
2019-04-04T14:17:43.900Z,96657.41
2019-04-04T14:20:14.678Z,96661.17
2019-04-04T14:22:43.329Z,96656.43
2019-04-04T14:25:12.254Z,96658.09
2019-04-04T14:27:43.528Z,96656.16
2019-04-04T14:30:15.275Z,96656.16
2019-04-04T14:32:44.097Z,96661.80
2019-04-04T14:35:12.735Z,96689.41
2019-04-04T14:37:41.235Z,96653.21
2019-04-04T14:40:10.796Z,96662.27
2019-04-04T14:42:39.540Z,96662.00
2019-04-04T14:45:09.913Z,96658.93
2019-04-04T14:47:38.636Z,96663.46
2019-04-04T14:50:10.436Z,96658.56
2019-04-04T14:52:39.749Z,96662.84
2019-04-04T14:55:09.113Z,96663.06
2019-04-04T14:57:37.767Z,96655.65
2019-04-04T15:00:09.653Z,96661.48
2019-04-04T15:02:38.400Z,96660.63
2019-04-04T15:05:07.461Z,96659.51
2019-04-04T15:07:36.116Z,96657.04
2019-04-04T15:10:05.334Z,96658.58
2019-04-04T15:12:33.922Z,96650.31
2019-04-04T15:15:04.330Z,96656.59
2019-04-04T15:17:32.981Z,96641.08
2019-04-04T15:20:01.629Z,96641.08
2019-04-04T15:22:31.911Z,96658.42
2019-04-04T15:25:00.752Z,96658.38
2019-04-04T15:27:29.535Z,96656.27
2019-04-04T15:29:58.655Z,96646.47
2019-04-04T15:32:27.301Z,96652.63
2019-04-04T15:34:57.128Z,96662.11
2019-04-04T15:37:25.828Z,96658.86
2019-04-04T15:39:55.349Z,96666.02
2019-04-04T15:42:23.997Z,96660.11
2019-04-04T15:44:52.654Z,96659.84
2019-04-04T15:47:21.927Z,96663.86
2019-04-04T15:49:50.402Z,96671.77
2019-04-04T15:52:19.069Z,96671.67
2019-04-04T15:54:47.760Z,96673.34
2019-04-04T15:57:16.431Z,96675.92
2019-04-04T15:59:45.019Z,96675.13
2019-04-04T16:02:13.706Z,96670.70
2019-04-04T16:04:42.356Z,96673.02
2019-04-04T16:07:11.671Z,96668.41
2019-04-04T16:09:40.331Z,96671.16
2019-04-04T16:12:08.940Z,96667.13
2019-04-04T16:14:38.470Z,96672.88
2019-04-04T16:17:07.789Z,96689.44
2019-04-04T16:19:36.378Z,96680.16
2019-04-04T16:22:06.679Z,96679.70
2019-04-04T16:24:35.576Z,96684.30
2019-04-04T16:27:04.517Z,96684.66
2019-04-04T16:29:33.190Z,96683.69
2019-04-04T16:32:01.980Z,96700.28
2019-04-04T16:34:30.494Z,96696.38
2019-04-04T16:36:59.135Z,96691.22
2019-04-04T16:39:27.823Z,96691.03
2019-04-04T16:42:02.461Z,96699.39
2019-04-04T16:44:27.499Z,96700.07
2019-04-04T16:46:56.710Z,96699.88
2019-04-04T16:49:26.452Z,96705.88
2019-04-04T16:51:55.131Z,96704.46
2019-04-04T16:54:23.755Z,96699.89
2019-04-04T16:56:52.496Z,96710.75
2019-04-04T16:59:21.146Z,96709.44
2019-04-04T17:01:50.263Z,96714.88
2019-04-04T17:04:18.917Z,96713.01
2019-04-04T17:06:47.608Z,96716.66
2019-04-04T17:09:16.568Z,96711.77
2019-04-04T17:11:45.220Z,96713.27
2019-04-04T17:14:13.868Z,96705.69
2019-04-04T17:16:42.565Z,96718.87
2019-04-04T17:19:11.148Z,96714.73
2019-04-04T17:21:39.733Z,96725.41
2019-04-04T17:24:08.704Z,96724.86
2019-04-04T17:26:37.283Z,96726.41
2019-04-04T17:29:06.033Z,96726.96
2019-04-04T17:31:34.717Z,96721.28
2019-04-04T17:34:03.358Z,96728.54
2019-04-04T17:36:32.096Z,96731.83
2019-04-04T17:39:00.683Z,96736.75
2019-04-04T17:41:29.336Z,96735.62
2019-04-04T17:43:58.105Z,96738.17
2019-04-04T17:46:26.756Z,96742.92
2019-04-04T17:48:55.403Z,96745.16
2019-04-04T17:51:24.069Z,96740.58
2019-04-04T17:53:53.551Z,96741.45
2019-04-04T17:56:22.466Z,96747.80
2019-04-04T17:58:51.111Z,96754.13
2019-04-04T18:01:19.762Z,96754.74
2019-04-04T18:03:49.430Z,96756.23
2019-04-04T18:06:19.234Z,96762.21
2019-04-04T18:08:54.419Z,96766.84
2019-04-04T18:11:23.087Z,96770.88
2019-04-04T18:13:51.818Z,96774.67
2019-04-04T18:16:22.969Z,96780.64
2019-04-04T18:18:51.641Z,96785.91
2019-04-04T18:21:20.333Z,96786.09
2019-04-04T18:23:48.973Z,96790.82
2019-04-04T18:26:17.632Z,96792.89
2019-04-04T18:28:46.330Z,96803.02
2019-04-04T18:31:14.984Z,96803.77
2019-04-04T18:33:43.650Z,96811.34
2019-04-04T18:36:12.902Z,96813.70
2019-04-04T18:38:41.677Z,96813.02
2019-04-04T18:41:10.396Z,96819.35
2019-04-04T18:43:39.042Z,96821.03
2019-04-04T18:46:08.016Z,96824.78
2019-04-04T18:48:36.595Z,96824.84
2019-04-04T18:51:05.350Z,96818.41
2019-04-04T18:53:34.108Z,96826.64
2019-04-04T18:56:02.756Z,96826.39
2019-04-04T18:58:31.339Z,96830.30
2019-04-04T19:01:00.017Z,96831.55
2019-04-04T19:03:29.878Z,96838.70
2019-04-04T19:05:58.694Z,96836.75
2019-04-04T19:08:27.440Z,96837.86
2019-04-04T19:10:56.026Z,96833.85
2019-04-04T19:13:25.725Z,96838.91
2019-04-04T19:15:54.415Z,96833.16
2019-04-04T19:18:24.500Z,96835.88
2019-04-04T19:24:15.886Z,96832.86
2019-04-04T19:26:48.446Z,96833.27
2019-04-04T19:29:18.542Z,96838.09
2019-04-04T19:31:47.194Z,96837.56
2019-04-04T19:34:15.888Z,96833.80
2019-04-04T19:36:44.617Z,96835.27
2019-04-04T19:39:19.278Z,96830.94
2019-04-04T19:41:51.097Z,96831.94
2019-04-04T19:44:19.746Z,96831.39
2019-04-04T19:46:48.406Z,96826.61
2019-04-04T19:49:17.036Z,96834.14
2019-04-04T19:51:45.688Z,96827.85
2019-04-04T19:54:14.336Z,96823.63
2019-04-04T19:56:44.829Z,96827.63
2019-04-04T19:59:50.489Z,96829.31
2019-04-04T20:02:20.229Z,96831.75
2019-04-04T20:04:49.217Z,96834.43
2019-04-04T20:07:19.144Z,96830.29
2019-04-04T20:09:47.755Z,96835.42
2019-04-04T20:12:16.436Z,96854.00
2019-04-04T20:14:46.595Z,96850.98
2019-04-04T20:17:15.255Z,96853.68
2019-04-04T20:19:47.637Z,96858.23
2019-04-04T20:22:16.368Z,96856.00
2019-04-04T20:24:45.612Z,96857.98
2019-04-04T20:27:14.576Z,96860.07
2019-04-04T20:29:43.629Z,96876.27
2019-04-04T20:32:12.337Z,96878.73
2019-04-04T20:34:40.841Z,96875.17
2019-04-04T20:37:11.433Z,96875.34
2019-04-04T20:39:40.082Z,96876.08
2019-04-04T20:42:08.743Z,96875.76
2019-04-04T20:44:38.804Z,96887.05
2019-04-04T20:47:07.386Z,96893.40
2019-04-04T20:49:36.075Z,96888.03
2019-04-04T20:52:05.050Z,96889.63
2019-04-04T20:54:33.700Z,96893.02
2019-04-04T20:57:02.399Z,96895.95
2019-04-04T20:59:32.197Z,96898.16
2019-04-04T21:02:00.844Z,96900.27
2019-04-04T21:04:29.394Z,96903.27
2019-04-04T21:06:58.035Z,96896.15
2019-04-04T21:09:27.971Z,96902.48
2019-04-04T21:11:56.668Z,96901.78
2019-04-04T21:14:26.297Z,96896.73
2019-04-04T21:16:54.942Z,96896.21
2019-04-04T21:19:23.983Z,96892.91
2019-04-04T21:21:52.657Z,96891.45
2019-04-04T21:24:21.218Z,96882.32
2019-04-04T21:26:50.466Z,96881.55
2019-04-04T21:29:19.711Z,96882.48
2019-04-04T21:31:48.365Z,96889.59
2019-04-04T21:34:18.553Z,96889.74
2019-04-04T21:36:47.134Z,96887.48
2019-04-04T21:39:15.815Z,96886.06
2019-04-04T21:41:44.465Z,96890.16
2019-04-04T21:44:13.106Z,96898.04
2019-04-04T21:46:41.674Z,96887.86
2019-04-04T21:49:10.404Z,96891.66
2019-04-04T21:51:38.954Z,96894.84
2019-04-04T21:54:07.591Z,96898.45
2019-04-04T21:56:36.286Z,96891.72
2019-04-04T21:59:06.338Z,96894.21
2019-04-04T22:01:35.082Z,96894.27
2019-04-04T22:04:03.780Z,96893.17
2019-04-04T22:06:32.418Z,96898.01
2019-04-04T22:09:01.059Z,96896.44
2019-04-04T22:11:29.681Z,96892.91
2019-04-04T22:13:58.332Z,96895.40
2019-04-04T22:16:26.907Z,96890.94
2019-04-04T22:18:55.519Z,96876.63
2019-04-04T22:21:24.101Z,96878.46
2019-04-04T22:23:52.751Z,96884.52
2019-04-04T22:26:21.436Z,96879.86
2019-04-04T22:28:50.074Z,96892.16
2019-04-04T22:31:18.721Z,96889.83
2019-04-04T22:33:47.328Z,96890.58
2019-04-04T22:36:15.980Z,96894.93
2019-04-04T22:38:44.637Z,96895.78
2019-04-04T22:41:14.215Z,96900.89
2019-04-04T22:43:42.724Z,96896.39
2019-04-04T22:46:11.382Z,96896.91
2019-04-04T22:48:40.041Z,96898.47
2019-04-04T22:51:08.692Z,96895.02
2019-04-04T22:53:37.281Z,96888.81
2019-04-04T22:56:05.923Z,96889.16
2019-04-04T22:58:34.576Z,96896.01
2019-04-04T23:01:03.269Z,96888.75
2019-04-04T23:03:31.919Z,96884.65
2019-04-04T23:06:00.568Z,96895.98
2019-04-04T23:08:29.308Z,96891.96
2019-04-04T23:10:57.879Z,96886.75
2019-04-04T23:13:26.522Z,96885.64
2019-04-04T23:15:55.222Z,96878.19
2019-04-04T23:18:23.724Z,96858.49
2019-04-04T23:20:52.380Z,96859.04
2019-04-04T23:23:21.078Z,96868.55
2019-04-04T23:25:49.980Z,96864.91
2019-04-04T23:28:18.487Z,96867.44
2019-04-04T23:30:47.168Z,96867.89
2019-04-04T23:33:15.847Z,96861.78
2019-04-04T23:35:44.465Z,96865.43
2019-04-04T23:38:13.334Z,96848.80
2019-04-04T23:40:42.308Z,96844.56
2019-04-04T23:43:10.954Z,96851.58
2019-04-04T23:45:39.614Z,96850.34
2019-04-04T23:48:08.259Z,96844.61
2019-04-04T23:50:36.901Z,96841.54
2019-04-04T23:53:05.527Z,96842.20
2019-04-04T23:55:34.109Z,96847.28
2019-04-04T23:58:02.757Z,96849.58
